Helene — V2BK5 — position and weather

sailwx.info

Track history (hours):
 
Tides and Currents Weather Stations Pressure Air Temp Water Temp Dewpoint Dewpoint Depression Visibility Wind Speed Wind Dir Waves Ship Positions

Helene

Last reported at 2015-Sep-03 14:14 UTC. Time now 2015-Sep-04 21:05 UTC.
Position N 36°46' E 003°04'.

Length 140 m; draft 8 m.

Type: Cargo ship. MMSI: 304846000.

Date/timePositionNaut miles runAvg speedWind from/ knotsBaromVisibWave heightAir tempDewpointWater temp
2015-Sep-03 14:14N 36°46' E 003°04'0 0.0
2015-Sep-03 04:32N 36°46' E 003°04'  
2015-Aug-31 19:16N 36°46' E 003°04'0 0.0
2015-Aug-31 18:22N 36°46' E 003°04'0 0.0
2015-Aug-31 17:28N 36°46' E 003°04'0 0.0
2015-Aug-31 16:31N 36°46' E 003°04'0 0.0
2015-Aug-31 15:31N 36°46' E 003°04'0 0.0
2015-Aug-31 11:28N 36°46' E 003°04'0 0.0
2015-Aug-31 10:28N 36°46' E 003°04'0 0.0
2015-Aug-31 08:18N 36°46' E 003°04'0 0.0
2015-Aug-31 07:30N 36°46' E 003°04'1 0.2
2015-Aug-30 23:09N 36°46' E 003°06'2 2.8
2015-Aug-30 22:33N 36°47' E 003°07'63 1.3
2015-Aug-28 20:33N 37°07' E 004°22'9211.2
2015-Aug-28 12:24N 37°19' E 006°16'9911.2
2015-Aug-28 03:33N 37°33' E 008°20'4410.9
2015-Aug-27 23:32N 37°38' E 009°15'1010.8
2015-Aug-27 22:33N 37°38' E 009°28'1210.6
2015-Aug-27 21:24N 37°38' E 009°44'1010.8
2015-Aug-27 20:29N 37°39' E 009°56'2110.7
2015-Aug-27 18:32N 37°37' E 010°22'1110.8
2015-Aug-27 17:33N 37°35' E 010°35'1110.7
2015-Aug-27 16:32N 37°31' E 010°48'9 7.7
2015-Aug-27 15:23N 37°29' E 010°59'0 0.3
2015-Aug-27 14:33N 37°29' E 010°59'4 3.6
2015-Aug-27 13:33N 37°29' E 011°04'9 8.8
2015-Aug-27 12:32N 37°26' E 011°14'1111.0
2015-Aug-27 11:33N 37°20' E 011°26'1111.2
2015-Aug-27 10:33N 37°14' E 011°38'1111.4
2015-Aug-27 09:33N 37°07' E 011°49'1111.5
2015-Aug-27 08:33N 37°01' E 012°01'10 9.9
2015-Aug-27 07:33N 36°56' E 012°12'1010.0
2015-Aug-27 06:33N 36°50' E 012°22'1010.1
2015-Aug-27 05:33N 36°45' E 012°33'1010.1
2015-Aug-27 04:31N 36°39' E 012°44'1010.4
2015-Aug-27 03:33N 36°33' E 012°54'1110.6
2015-Aug-27 02:33N 36°27' E 013°05'1110.6
2015-Aug-27 01:33N 36°22' E 013°16'1110.8
2015-Aug-27 00:33N 36°15' E 013°27'1110.8
2015-Aug-26 23:33N 36°08' E 013°37'1110.7
2015-Aug-26 22:33N 36°02' E 013°48'1110.6
2015-Aug-26 21:33N 35°55' E 013°58'1010.5
2015-Aug-26 20:33N 35°49' E 014°08'1110.5
2015-Aug-26 19:33N 35°43' E 014°19'9 8.7
2015-Aug-26 18:33N 35°44' E 014°30'6 5.9
2015-Aug-26 17:33N 35°49' E 014°34'1 0.1
2015-Aug-26 05:31N 35°49' E 014°33'0 0.0
2015-Aug-26 04:31N 35°49' E 014°33'0 0.0
2015-Aug-26 03:31N 35°49' E 014°33'0 0.0
2015-Aug-26 01:19N 35°49' E 014°33'0 0.0
2015-Aug-26 00:31N 35°49' E 014°33'0 0.0
2015-Aug-25 23:31N 35°49' E 014°33'0 0.0
2015-Aug-25 22:31N 35°49' E 014°33'0 0.0
2015-Aug-25 21:31N 35°49' E 014°33'0 0.0
2015-Aug-25 20:31N 35°49' E 014°33'0 0.0
2015-Aug-25 19:31N 35°49' E 014°33'0 0.0
2015-Aug-25 17:25N 35°49' E 014°33'0 0.0
2015-Aug-25 16:31N 35°49' E 014°33'0 0.0
2015-Aug-25 15:28N 35°49' E 014°33'0 0.0
2015-Aug-25 14:28N 35°49' E 014°33'0 0.0
2015-Aug-25 13:25N 35°49' E 014°33'0 0.0
2015-Aug-25 12:31N 35°49' E 014°33'0 0.0
2015-Aug-25 11:31N 35°49' E 014°33'0 0.1
2015-Aug-25 10:33N 35°49' E 014°33'4 4.1
2015-Aug-25 09:33N 35°49' E 014°38'3 2.9
2015-Aug-25 08:27N 35°52' E 014°40'0 0.0
2015-Aug-25 07:33N 35°52' E 014°40'0 0.0
2015-Aug-25 06:33N 35°52' E 014°40'0 0.0
2015-Aug-25 05:33N 35°52' E 014°40'0 0.0
2015-Aug-25 04:33N 35°52' E 014°40'0 0.1
2015-Aug-25 03:33N 35°52' E 014°40'0 0.1
2015-Aug-25 02:33N 35°51' E 014°40'0 0.2
2015-Aug-25 01:33N 35°52' E 014°40'0 0.0
2015-Aug-25 00:33N 35°52' E 014°40'0 0.0
2015-Aug-24 23:33N 35°52' E 014°40'0 0.0
2015-Aug-24 22:33N 35°52' E 014°40'0 0.0
2015-Aug-24 21:33N 35°52' E 014°40'0 0.0
2015-Aug-24 20:33N 35°52' E 014°40'0 0.0
2015-Aug-24 19:33N 35°52' E 014°40'0 0.0
2015-Aug-24 18:33N 35°52' E 014°40'0 0.0
2015-Aug-24 17:33N 35°52' E 014°40'0 0.0
2015-Aug-24 16:33N 35°52' E 014°40'0 0.0
2015-Aug-24 15:33N 35°52' E 014°40'0 0.0
2015-Aug-24 14:33N 35°52' E 014°40'  
Track history (hours):
 
Tides and Currents Weather Stations Pressure Air Temp Water Temp Dewpoint Dewpoint Depression Visibility Wind Speed Wind Dir Waves Ship Positions

Helene

Last reported at 2015-Sep-03 14:14 UTC. Time now 2015-Sep-04 21:05 UTC.
Position N 36°46' E 003°04'.

Length 140 m; draft 8 m.

Type: Cargo ship. MMSI: 304846000.

Date/timePositionNaut miles runAvg speedWind from/ knotsBaromVisibWave heightAir tempDewpointWater temp
2015-Sep-03 14:14N 36°46' E 003°04'0 0.0
2015-Sep-03 04:32N 36°46' E 003°04'  
2015-Aug-31 19:16N 36°46' E 003°04'0 0.0
2015-Aug-31 18:22N 36°46' E 003°04'0 0.0
2015-Aug-31 17:28N 36°46' E 003°04'0 0.0
2015-Aug-31 16:31N 36°46' E 003°04'0 0.0
2015-Aug-31 15:31N 36°46' E 003°04'0 0.0
2015-Aug-31 11:28N 36°46' E 003°04'0 0.0
2015-Aug-31 10:28N 36°46' E 003°04'0 0.0
2015-Aug-31 08:18N 36°46' E 003°04'0 0.0
2015-Aug-31 07:30N 36°46' E 003°04'1 0.2
2015-Aug-30 23:09N 36°46' E 003°06'2 2.8
2015-Aug-30 22:33N 36°47' E 003°07'63 1.3
2015-Aug-28 20:33N 37°07' E 004°22'9211.2
2015-Aug-28 12:24N 37°19' E 006°16'9911.2
2015-Aug-28 03:33N 37°33' E 008°20'4410.9
2015-Aug-27 23:32N 37°38' E 009°15'1010.8
2015-Aug-27 22:33N 37°38' E 009°28'1210.6
2015-Aug-27 21:24N 37°38' E 009°44'1010.8
2015-Aug-27 20:29N 37°39' E 009°56'2110.7
2015-Aug-27 18:32N 37°37' E 010°22'1110.8
2015-Aug-27 17:33N 37°35' E 010°35'1110.7
2015-Aug-27 16:32N 37°31' E 010°48'9 7.7
2015-Aug-27 15:23N 37°29' E 010°59'0 0.3
2015-Aug-27 14:33N 37°29' E 010°59'4 3.6
2015-Aug-27 13:33N 37°29' E 011°04'9 8.8
2015-Aug-27 12:32N 37°26' E 011°14'1111.0
2015-Aug-27 11:33N 37°20' E 011°26'1111.2
2015-Aug-27 10:33N 37°14' E 011°38'1111.4
2015-Aug-27 09:33N 37°07' E 011°49'1111.5
2015-Aug-27 08:33N 37°01' E 012°01'10 9.9
2015-Aug-27 07:33N 36°56' E 012°12'1010.0
2015-Aug-27 06:33N 36°50' E 012°22'1010.1
2015-Aug-27 05:33N 36°45' E 012°33'1010.1
2015-Aug-27 04:31N 36°39' E 012°44'1010.4
2015-Aug-27 03:33N 36°33' E 012°54'1110.6
2015-Aug-27 02:33N 36°27' E 013°05'1110.6
2015-Aug-27 01:33N 36°22' E 013°16'1110.8
2015-Aug-27 00:33N 36°15' E 013°27'1110.8
2015-Aug-26 23:33N 36°08' E 013°37'1110.7
2015-Aug-26 22:33N 36°02' E 013°48'1110.6
2015-Aug-26 21:33N 35°55' E 013°58'1010.5
2015-Aug-26 20:33N 35°49' E 014°08'1110.5
2015-Aug-26 19:33N 35°43' E 014°19'9 8.7
2015-Aug-26 18:33N 35°44' E 014°30'6 5.9
2015-Aug-26 17:33N 35°49' E 014°34'1 0.1
2015-Aug-26 05:31N 35°49' E 014°33'0 0.0
2015-Aug-26 04:31N 35°49' E 014°33'0 0.0
2015-Aug-26 03:31N 35°49' E 014°33'0 0.0
2015-Aug-26 01:19N 35°49' E 014°33'0 0.0
2015-Aug-26 00:31N 35°49' E 014°33'0 0.0
2015-Aug-25 23:31N 35°49' E 014°33'0 0.0
2015-Aug-25 22:31N 35°49' E 014°33'0 0.0
2015-Aug-25 21:31N 35°49' E 014°33'0 0.0
2015-Aug-25 20:31N 35°49' E 014°33'0 0.0
2015-Aug-25 19:31N 35°49' E 014°33'0 0.0
2015-Aug-25 17:25N 35°49' E 014°33'0 0.0
2015-Aug-25 16:31N 35°49' E 014°33'0 0.0
2015-Aug-25 15:28N 35°49' E 014°33'0 0.0
2015-Aug-25 14:28N 35°49' E 014°33'0 0.0
2015-Aug-25 13:25N 35°49' E 014°33'0 0.0
2015-Aug-25 12:31N 35°49' E 014°33'0 0.0
2015-Aug-25 11:31N 35°49' E 014°33'0 0.1
2015-Aug-25 10:33N 35°49' E 014°33'4 4.1
2015-Aug-25 09:33N 35°49' E 014°38'3 2.9
2015-Aug-25 08:27N 35°52' E 014°40'0 0.0
2015-Aug-25 07:33N 35°52' E 014°40'0 0.0
2015-Aug-25 06:33N 35°52' E 014°40'0 0.0
2015-Aug-25 05:33N 35°52' E 014°40'0 0.0
2015-Aug-25 04:33N 35°52' E 014°40'0 0.1
2015-Aug-25 03:33N 35°52' E 014°40'0 0.1
2015-Aug-25 02:33N 35°51' E 014°40'0 0.2
2015-Aug-25 01:33N 35°52' E 014°40'0 0.0
2015-Aug-25 00:33N 35°52' E 014°40'0 0.0
2015-Aug-24 23:33N 35°52' E 014°40'0 0.0
2015-Aug-24 22:33N 35°52' E 014°40'0 0.0
2015-Aug-24 21:33N 35°52' E 014°40'0 0.0
2015-Aug-24 20:33N 35°52' E 014°40'0 0.0
2015-Aug-24 19:33N 35°52' E 014°40'0 0.0
2015-Aug-24 18:33N 35°52' E 014°40'0 0.0
2015-Aug-24 17:33N 35°52' E 014°40'0 0.0
2015-Aug-24 16:33N 35°52' E 014°40'0 0.0
2015-Aug-24 15:33N 35°52' E 014°40'0 0.0
2015-Aug-24 14:33N 35°52' E 014°40'  

Dump ship's entire track history